createdAt,value
2022-08-24T00:03:36.347Z,95.18
2022-08-24T00:08:59.728Z,95.52
2022-08-24T00:14:24.315Z,95.82
2022-08-24T00:19:46.625Z,97.13
2022-08-24T00:25:10.706Z,97.01
2022-08-24T00:30:34.154Z,97.40
2022-08-24T00:35:55.995Z,97.63
2022-08-24T00:41:18.545Z,98.25
2022-08-24T00:46:52.428Z,98.99
2022-08-24T00:52:28.696Z,98.80
2022-08-24T00:57:56.671Z,98.58
2022-08-24T01:03:19.343Z,99.09
2022-08-24T01:08:41.895Z,99.47
2022-08-24T01:14:06.035Z,99.85
2022-08-24T01:19:35.976Z,100.00
2022-08-24T01:24:59.095Z,100.00
2022-08-24T01:30:36.141Z,100.00
2022-08-24T01:36:03.004Z,100.00
2022-08-24T01:41:29.108Z,100.00
2022-08-24T01:46:55.251Z,100.00
2022-08-24T01:52:23.218Z,100.00
2022-08-24T01:57:46.885Z,100.00
2022-08-24T02:03:08.887Z,100.00
2022-08-24T02:08:32.514Z,100.00
2022-08-24T02:13:54.794Z,100.00
2022-08-24T02:19:18.837Z,100.00
2022-08-24T02:24:41.214Z,100.00
2022-08-24T02:30:04.524Z,100.00
2022-08-24T02:35:28.495Z,100.00
2022-08-24T02:40:51.124Z,100.00
2022-08-24T02:46:25.832Z,100.00
2022-08-24T02:51:48.015Z,100.00
2022-08-24T02:57:12.903Z,100.00
2022-08-24T03:02:36.615Z,100.00
2022-08-24T03:07:58.650Z,100.00
2022-08-24T03:13:23.673Z,100.00
2022-08-24T03:18:45.484Z,100.00
2022-08-24T03:24:09.654Z,100.00
2022-08-24T03:29:33.794Z,100.00
2022-08-24T03:34:57.035Z,100.00
2022-08-24T03:40:22.875Z,100.00
2022-08-24T03:45:50.413Z,100.00
2022-08-24T03:51:15.495Z,100.00
2022-08-24T03:56:37.945Z,100.00
2022-08-24T04:02:00.385Z,100.00
2022-08-24T04:07:25.314Z,100.00
2022-08-24T04:12:47.903Z,100.00
2022-08-24T04:18:13.355Z,100.00
2022-08-24T04:23:47.074Z,99.89
2022-08-24T04:29:14.004Z,98.84
2022-08-24T04:34:40.944Z,93.26
2022-08-24T04:40:04.820Z,90.86
2022-08-24T04:45:34.633Z,88.94
2022-08-24T04:51:04.272Z,88.63
2022-08-24T04:56:27.735Z,88.79
2022-08-24T05:01:52.767Z,88.85
2022-08-24T05:07:19.326Z,87.37
2022-08-24T05:12:41.934Z,84.96
2022-08-24T05:18:05.538Z,82.92
2022-08-24T05:23:28.093Z,80.84
2022-08-24T05:28:49.894Z,78.33
2022-08-24T05:34:12.586Z,75.19
2022-08-24T05:39:34.760Z,73.44
2022-08-24T05:45:01.786Z,71.74
2022-08-24T05:50:26.595Z,70.25
2022-08-24T05:55:49.584Z,68.21
2022-08-24T06:01:19.347Z,66.95
2022-08-24T06:06:42.631Z,66.42
2022-08-24T06:12:09.457Z,65.48
2022-08-24T06:17:35.358Z,64.01
2022-08-24T06:22:57.776Z,62.68
2022-08-24T06:28:28.408Z,61.26
2022-08-24T06:33:51.497Z,61.09
2022-08-24T06:39:13.795Z,60.38
2022-08-24T06:44:39.911Z,60.15
2022-08-24T06:50:11.494Z,59.18
2022-08-24T06:55:34.727Z,58.51
2022-08-24T07:00:57.735Z,55.08
2022-08-24T07:06:21.279Z,54.38
2022-08-24T07:11:43.915Z,53.79
2022-08-24T07:17:06.612Z,53.62
2022-08-24T07:22:28.620Z,53.23
2022-08-24T07:27:50.946Z,51.41
2022-08-24T07:33:13.686Z,52.02
2022-08-24T07:38:37.265Z,49.81
2022-08-24T07:44:00.495Z,48.93
2022-08-24T07:49:36.042Z,49.41
2022-08-24T07:54:59.582Z,48.38
2022-08-24T08:00:23.795Z,47.75
2022-08-24T08:06:00.544Z,47.30
2022-08-24T08:11:22.736Z,46.39
2022-08-24T08:16:45.476Z,47.06
2022-08-24T08:22:26.537Z,46.45
2022-08-24T08:28:24.872Z,44.82
2022-08-24T08:33:49.725Z,45.13
2022-08-24T08:39:16.925Z,45.61
2022-08-24T08:45:12.059Z,46.00
2022-08-24T08:51:06.744Z,46.32
2022-08-24T08:56:59.924Z,45.58
2022-08-24T09:02:49.175Z,45.30
2022-08-24T09:08:26.384Z,44.53
2022-08-24T09:14:13.535Z,44.53
2022-08-24T09:19:38.162Z,43.71
2022-08-24T09:25:10.834Z,44.02
2022-08-24T09:31:05.342Z,44.59
2022-08-24T09:36:42.804Z,44.78
2022-08-24T09:42:32.546Z,44.36
2022-08-24T09:48:28.173Z,43.62
2022-08-24T09:54:30.853Z,42.56
2022-08-24T10:00:11.365Z,42.76
2022-08-24T10:06:15.550Z,43.76
2022-08-24T10:11:46.787Z,44.19
2022-08-24T10:17:21.367Z,43.99
2022-08-24T10:23:02.747Z,43.60
2022-08-24T10:28:44.134Z,44.01
2022-08-24T10:34:28.815Z,44.53
2022-08-24T10:40:14.964Z,44.60
2022-08-24T10:45:58.967Z,44.42
2022-08-24T10:52:05.774Z,43.85
2022-08-24T10:57:48.567Z,43.33
2022-08-24T11:03:13.054Z,43.52
2022-08-24T11:08:35.310Z,44.14
2022-08-24T11:14:19.355Z,44.04
2022-08-24T11:19:43.075Z,42.49
2022-08-24T11:25:23.787Z,40.58
2022-08-24T11:30:49.806Z,41.66
2022-08-24T11:36:22.417Z,41.44
2022-08-24T11:42:00.583Z,42.15
2022-08-24T11:47:45.134Z,41.80
2022-08-24T11:59:12.124Z,42.39
2022-08-24T12:04:51.883Z,42.22
2022-08-24T12:10:58.355Z,42.89
2022-08-24T12:16:31.796Z,41.53
2022-08-24T12:22:03.782Z,42.26
2022-08-24T12:27:38.363Z,39.75
2022-08-24T12:33:15.082Z,42.18
2022-08-24T12:38:46.385Z,42.65
2022-08-24T12:44:15.686Z,42.41
2022-08-24T12:49:50.484Z,41.90
2022-08-24T12:55:52.386Z,42.39
2022-08-24T13:01:20.437Z,42.35
2022-08-24T13:06:59.894Z,40.32
2022-08-24T13:12:43.963Z,41.71
2022-08-24T13:18:14.833Z,42.00
2022-08-24T13:23:37.515Z,41.88
2022-08-24T13:29:01.554Z,43.04
2022-08-24T13:34:37.596Z,42.95
2022-08-24T13:40:22.692Z,42.96
2022-08-24T13:45:57.792Z,42.86
2022-08-24T13:51:44.076Z,43.31
2022-08-24T13:57:21.536Z,43.07
2022-08-24T14:03:08.221Z,42.96
2022-08-24T14:08:45.097Z,42.97
2022-08-24T14:14:10.872Z,43.18
2022-08-24T14:19:41.685Z,43.33
2022-08-24T14:25:21.457Z,42.71
2022-08-24T14:30:45.594Z,43.04
2022-08-24T14:36:25.734Z,43.25
2022-08-24T14:41:59.096Z,43.30
2022-08-24T14:47:41.894Z,43.71
2022-08-24T14:53:17.175Z,43.86
2022-08-24T14:59:12.186Z,44.21
2022-08-24T15:04:43.645Z,44.69
2022-08-24T15:10:15.346Z,45.20
2022-08-24T15:15:50.397Z,45.89
2022-08-24T15:21:34.077Z,46.00
2022-08-24T15:27:38.605Z,46.14
2022-08-24T15:33:19.477Z,46.33
2022-08-24T15:38:42.786Z,46.50
2022-08-24T15:44:13.534Z,47.42
2022-08-24T15:49:51.727Z,49.05
2022-08-24T15:55:37.539Z,49.48
2022-08-24T16:01:20.655Z,50.28
2022-08-24T16:06:45.755Z,51.11
2022-08-24T16:12:17.175Z,52.04
2022-08-24T16:17:51.117Z,52.34
2022-08-24T16:23:27.514Z,53.45
2022-08-24T16:28:51.362Z,53.76
2022-08-24T16:34:29.369Z,54.36
2022-08-24T16:39:51.451Z,54.51
2022-08-24T16:45:18.931Z,54.79
2022-08-24T16:50:41.125Z,55.62
2022-08-24T16:56:04.974Z,56.94
2022-08-24T17:01:26.927Z,57.51
2022-08-24T17:06:50.716Z,57.90
2022-08-24T17:12:13.790Z,58.36
2022-08-24T17:17:36.470Z,58.57
2022-08-24T17:22:59.274Z,59.83
2022-08-24T17:28:21.491Z,60.77
2022-08-24T17:33:43.446Z,61.45
2022-08-24T17:39:07.695Z,61.81
2022-08-24T17:44:34.008Z,61.76
2022-08-24T17:49:57.527Z,62.03
2022-08-24T17:55:25.048Z,62.75
2022-08-24T18:00:47.439Z,63.37
2022-08-24T18:06:09.803Z,63.42
2022-08-24T18:11:31.548Z,64.44
2022-08-24T18:16:57.333Z,65.71
2022-08-24T18:22:20.882Z,66.47
2022-08-24T18:27:45.308Z,67.38
2022-08-24T18:33:08.710Z,68.12
2022-08-24T18:38:30.910Z,68.64
2022-08-24T18:43:53.230Z,68.82
2022-08-24T18:49:19.215Z,69.25
2022-08-24T18:54:45.285Z,70.38
2022-08-24T19:00:10.401Z,70.93
2022-08-24T19:05:32.914Z,71.80
2022-08-24T19:10:54.956Z,72.94
2022-08-24T19:16:17.489Z,72.93
2022-08-24T19:21:40.895Z,73.31
2022-08-24T19:27:03.525Z,73.96
2022-08-24T19:32:30.506Z,74.78
2022-08-24T19:37:52.921Z,75.39
2022-08-24T19:43:15.672Z,75.53
2022-08-24T19:48:40.456Z,75.48
2022-08-24T19:54:02.555Z,77.91
2022-08-24T19:59:34.396Z,77.64
2022-08-24T20:04:56.535Z,77.86
2022-08-24T20:10:21.805Z,77.88
2022-08-24T20:15:44.212Z,78.21
2022-08-24T20:21:07.268Z,79.14
2022-08-24T20:26:33.277Z,79.54
2022-08-24T20:31:57.535Z,80.03
2022-08-24T20:37:24.915Z,80.79
2022-08-24T20:42:48.337Z,81.10
2022-08-24T20:48:14.258Z,82.09
2022-08-24T20:53:36.135Z,82.19
2022-08-24T20:58:58.261Z,82.27
2022-08-24T21:04:20.701Z,81.81
2022-08-24T21:09:42.636Z,82.47
2022-08-24T21:15:05.187Z,83.40
2022-08-24T21:20:27.666Z,83.22
2022-08-24T21:25:50.503Z,83.97
2022-08-24T21:31:12.909Z,84.51
2022-08-24T21:36:36.043Z,85.11
2022-08-24T21:42:00.705Z,85.86
2022-08-24T21:47:23.145Z,86.64
2022-08-24T21:52:45.184Z,86.20
2022-08-24T21:58:08.726Z,86.71
2022-08-24T22:03:31.541Z,87.55
2022-08-24T22:09:03.512Z,88.41
2022-08-24T22:14:26.140Z,88.48
2022-08-24T22:19:48.285Z,89.00
2022-08-24T22:25:13.325Z,89.39
2022-08-24T22:30:35.565Z,90.37
2022-08-24T22:35:57.025Z,89.74
2022-08-24T22:41:19.063Z,89.80
2022-08-24T22:46:41.609Z,89.86
2022-08-24T22:52:03.915Z,90.91
2022-08-24T22:57:26.845Z,91.39
2022-08-24T23:02:50.176Z,93.39
2022-08-24T23:08:12.075Z,93.85
2022-08-24T23:13:37.393Z,93.61
2022-08-24T23:19:18.265Z,94.47
2022-08-24T23:24:42.267Z,94.96
2022-08-24T23:30:06.145Z,95.13
2022-08-24T23:35:29.295Z,94.49
2022-08-24T23:40:51.356Z,94.28
2022-08-24T23:46:13.833Z,94.95
2022-08-24T23:51:36.975Z,96.86
2022-08-24T23:56:59.195Z,96.23
